ACA290 KSFO-KPHX
Flight info
| Callsign | ACA290 |
|---|---|
| Flight time | N/A |
| Altitude | 35000 |
| Route | WESLA5 KAYEX LOSHN BOILE BLH HYDRR1 |
| Aircraft | B738/M-SDGIJ1LRWY/SB1 |
Departure
| Time | 2026-04-30 19:10 |
|---|---|
| Airport | San Francisco International Airport (KSFO) |
Arrival
| Time | N/A |
|---|---|
| Airport | Phoenix Sky Harbor International Airport (KPHX) |
| Time | Latitude | Longitude | Altitude | Speed | Heading |
|---|---|---|---|---|---|
| 2026-04-30 19:04 | 37.61992 | -122.38594 | 31 ft | 0 kts | 297° |
| 2026-04-30 19:06 | 37.61993 | -122.38596 | 31 ft | 0 kts | 309° |
| 2026-04-30 19:07 | 37.62077 | -122.38564 | 31 ft | 18 kts | 21° |
| 2026-04-30 19:07 | 37.62144 | -122.38426 | 31 ft | 28 kts | 112° |
| 2026-04-30 19:08 | 37.61912 | -122.37959 | 31 ft | 38 kts | 139° |
| 2026-04-30 19:08 | 37.61597 | -122.37217 | 15 ft | 63 kts | 120° |
| 2026-04-30 19:08 | 37.61402 | -122.36736 | 12 ft | 32 kts | 82° |
| 2026-04-30 19:09 | 37.61488 | -122.36619 | 12 ft | 0 kts | 297° |
| 2026-04-30 19:09 | 37.61488 | -122.36620 | 12 ft | 0 kts | 297° |
| 2026-04-30 19:09 | 37.61489 | -122.36621 | 12 ft | 0 kts | 297° |
| 2026-04-30 19:10 | 37.61840 | -122.37450 | 20 ft | 151 kts | 300° |
| 2026-04-30 19:10 | 37.62803 | -122.39655 | 2039 ft | 168 kts | 299° |
| 2026-04-30 19:11 | 37.63291 | -122.40800 | 2843 ft | 182 kts | 297° |
| 2026-04-30 19:11 | 37.62940 | -122.43749 | 4499 ft | 220 kts | 225° |
| 2026-04-30 19:11 | 37.61690 | -122.44642 | 5412 ft | 234 kts | 195° |
| 2026-04-30 19:12 | 37.60058 | -122.45031 | 6397 ft | 249 kts | 187° |
| 2026-04-30 19:12 | 37.58299 | -122.45342 | 7354 ft | 266 kts | 188° |
| 2026-04-30 19:12 | 37.56461 | -122.45714 | 8296 ft | 283 kts | 189° |
| 2026-04-30 19:13 | 37.52628 | -122.46551 | 10334 ft | 303 kts | 187° |
| 2026-04-30 19:13 | 37.48607 | -122.45776 | 11848 ft | 334 kts | 151° |
| 2026-04-30 19:13 | 37.47285 | -122.44654 | 12330 ft | 345 kts | 138° |
| 2026-04-30 19:14 | 37.45811 | -122.42678 | 12961 ft | 359 kts | 128° |
| 2026-04-30 19:14 | 37.44286 | -122.40311 | 13543 ft | 378 kts | 126° |
| 2026-04-30 19:14 | 37.42751 | -122.37882 | 14170 ft | 394 kts | 126° |
| 2026-04-30 19:14 | 37.41127 | -122.35311 | 14780 ft | 410 kts | 127° |
| 2026-04-30 19:15 | 37.39303 | -122.32444 | 15408 ft | 427 kts | 127° |
| 2026-04-30 19:15 | 37.35473 | -122.26475 | 16794 ft | 452 kts | 127° |
| 2026-04-30 19:15 | 37.33500 | -122.23421 | 17658 ft | 459 kts | 127° |
| 2026-04-30 19:16 | 37.31470 | -122.20285 | 18523 ft | 465 kts | 127° |
| 2026-04-30 19:16 | 37.29425 | -122.17131 | 19385 ft | 472 kts | 127° |
| 2026-04-30 19:16 | 37.25212 | -122.10645 | 21029 ft | 487 kts | 127° |
| 2026-04-30 19:17 | 37.23088 | -122.07375 | 21860 ft | 492 kts | 127° |
| 2026-04-30 19:17 | 37.18708 | -122.00643 | 23418 ft | 505 kts | 127° |
| 2026-04-30 19:17 | 37.16654 | -121.97490 | 24143 ft | 511 kts | 127° |
| 2026-04-30 19:18 | 37.12888 | -121.91712 | 25372 ft | 520 kts | 128° |
| 2026-04-30 19:18 | 37.09822 | -121.87017 | 26680 ft | 518 kts | 128° |
| 2026-04-30 19:18 | 37.07575 | -121.83581 | 27727 ft | 515 kts | 128° |
| 2026-04-30 19:19 | 37.05315 | -121.80128 | 28663 ft | 514 kts | 129° |
| 2026-04-30 19:19 | 37.03070 | -121.76702 | 29519 ft | 514 kts | 129° |
| 2026-04-30 19:19 | 36.98533 | -121.69790 | 31137 ft | 513 kts | 129° |
| 2026-04-30 19:20 | 36.96307 | -121.66403 | 31918 ft | 512 kts | 129° |
| 2026-04-30 19:20 | 36.94050 | -121.62974 | 32630 ft | 512 kts | 129° |
| 2026-04-30 19:20 | 36.89565 | -121.56165 | 34142 ft | 509 kts | 129° |
| 2026-04-30 19:21 | 36.87318 | -121.52760 | 34808 ft | 509 kts | 129° |
| 2026-04-30 19:21 | 36.82806 | -121.45932 | 35025 ft | 507 kts | 129° |
| 2026-04-30 19:22 | 36.50596 | -120.97586 | 35022 ft | 505 kts | 129° |
| 2026-04-30 19:23 | 34.30917 | -117.85978 | 35322 ft | 491 kts | 126° |
| 2026-04-30 19:24 | 34.15029 | -117.58028 | 34957 ft | 467 kts | 90° |
| 2026-04-30 19:24 | 34.15159 | -117.54129 | 34975 ft | 460 kts | 76° |
| 2026-04-30 19:25 | 34.19642 | -117.36234 | 34984 ft | 450 kts | 68° |
| 2026-04-30 19:26 | 34.21286 | -117.21397 | 35012 ft | 463 kts | 88° |
| 2026-04-30 19:27 | 34.19735 | -117.09842 | 35044 ft | 470 kts | 99° |
| 2026-04-30 19:28 | 34.17061 | -116.98408 | 35065 ft | 471 kts | 102° |
| 2026-04-30 19:29 | 34.13263 | -116.83353 | 35072 ft | 474 kts | 102° |
| 2026-04-30 19:30 | 34.09451 | -116.68189 | 35057 ft | 473 kts | 102° |
| 2026-04-30 19:31 | 34.05735 | -116.53397 | 35000 ft | 471 kts | 102° |
| 2026-04-30 19:31 | 34.03021 | -116.42645 | 34991 ft | 469 kts | 102° |
| 2026-04-30 19:32 | 34.01264 | -116.35705 | 35011 ft | 468 kts | 102° |
| 2026-04-30 19:32 | 33.99360 | -116.28203 | 35038 ft | 469 kts | 103° |
| 2026-04-30 19:33 | 33.97460 | -116.20739 | 35043 ft | 469 kts | 103° |
| 2026-04-30 19:33 | 33.95538 | -116.13210 | 35032 ft | 471 kts | 103° |
| 2026-04-30 19:34 | 33.93621 | -116.05715 | 35013 ft | 470 kts | 103° |
| 2026-04-30 19:35 | 33.90796 | -115.94720 | 35012 ft | 471 kts | 103° |
| 2026-04-30 19:35 | 33.89890 | -115.91201 | 35131 ft | 472 kts | 103° |
| 2026-04-30 19:35 | 33.89003 | -115.87759 | 34987 ft | 469 kts | 103° |
| 2026-04-30 19:36 | 33.87207 | -115.80810 | 34981 ft | 468 kts | 103° |
| 2026-04-30 19:36 | 33.84423 | -115.70058 | 34967 ft | 471 kts | 103° |
| 2026-04-30 19:37 | 33.82481 | -115.62588 | 34950 ft | 473 kts | 104° |
| 2026-04-30 19:37 | 33.80512 | -115.55043 | 34935 ft | 474 kts | 104° |
| 2026-04-30 19:38 | 33.78542 | -115.47518 | 34894 ft | 474 kts | 104° |
| 2026-04-30 19:38 | 33.76644 | -115.40280 | 34879 ft | 477 kts | 104° |
| 2026-04-30 19:39 | 33.74658 | -115.32729 | 34856 ft | 477 kts | 105° |
| 2026-04-30 19:39 | 33.72646 | -115.25108 | 34819 ft | 478 kts | 105° |
| 2026-04-30 19:40 | 33.70723 | -115.17834 | 34826 ft | 479 kts | 105° |
| 2026-04-30 19:40 | 33.68718 | -115.10274 | 34824 ft | 479 kts | 106° |
| 2026-04-30 19:41 | 33.66696 | -115.02672 | 34820 ft | 480 kts | 106° |
| 2026-04-30 19:41 | 33.64678 | -114.95100 | 34836 ft | 485 kts | 107° |
| 2026-04-30 19:42 | 33.62632 | -114.87444 | 34819 ft | 490 kts | 108° |
| 2026-04-30 19:42 | 33.60583 | -114.79803 | 34828 ft | 494 kts | 108° |
| 2026-04-30 19:43 | 33.58602 | -114.72101 | 34816 ft | 494 kts | 106° |
| 2026-04-30 19:44 | 33.56340 | -114.60430 | 34815 ft | 496 kts | 104° |
| 2026-04-30 19:44 | 33.55011 | -114.53082 | 34763 ft | 485 kts | 105° |
| 2026-04-30 19:44 | 33.54380 | -114.49651 | 34455 ft | 479 kts | 105° |
| 2026-04-30 19:45 | 33.53692 | -114.45982 | 33916 ft | 474 kts | 105° |
| 2026-04-30 19:45 | 33.52973 | -114.42205 | 33047 ft | 472 kts | 105° |
| 2026-04-30 19:45 | 33.52254 | -114.38474 | 31797 ft | 470 kts | 105° |
| 2026-04-30 19:45 | 33.51520 | -114.34712 | 30902 ft | 469 kts | 105° |
| 2026-04-30 19:46 | 33.50783 | -114.30959 | 30485 ft | 467 kts | 105° |
| 2026-04-30 19:46 | 33.50052 | -114.27248 | 29544 ft | 461 kts | 105° |
| 2026-04-30 19:46 | 33.49318 | -114.23541 | 28203 ft | 457 kts | 105° |
| 2026-04-30 19:46 | 33.48592 | -114.19887 | 27667 ft | 455 kts | 105° |
| 2026-04-30 19:47 | 33.47863 | -114.16216 | 26890 ft | 452 kts | 105° |
| 2026-04-30 19:47 | 33.47384 | -114.13806 | 25950 ft | 450 kts | 105° |
| 2026-04-30 19:47 | 33.46447 | -114.09100 | 24895 ft | 430 kts | 105° |
| 2026-04-30 19:47 | 33.45771 | -114.05700 | 24856 ft | 422 kts | 105° |
| 2026-04-30 19:48 | 33.45093 | -114.02308 | 24859 ft | 419 kts | 105° |
| 2026-04-30 19:48 | 33.44414 | -113.98928 | 24863 ft | 421 kts | 105° |
| 2026-04-30 19:48 | 33.43737 | -113.95562 | 24862 ft | 421 kts | 105° |
| 2026-04-30 19:48 | 33.43056 | -113.92182 | 24858 ft | 419 kts | 105° |
| 2026-04-30 19:49 | 33.42379 | -113.88816 | 24861 ft | 420 kts | 105° |
| 2026-04-30 19:49 | 33.41022 | -113.82070 | 24856 ft | 422 kts | 106° |
| 2026-04-30 19:49 | 33.40337 | -113.78667 | 24852 ft | 420 kts | 106° |
| 2026-04-30 19:50 | 33.39702 | -113.75525 | 24853 ft | 421 kts | 106° |
| 2026-04-30 19:50 | 33.39026 | -113.72175 | 24854 ft | 422 kts | 107° |
| 2026-04-30 19:50 | 33.38412 | -113.69148 | 24889 ft | 427 kts | 107° |
| 2026-04-30 19:50 | 33.37732 | -113.65802 | 24844 ft | 424 kts | 106° |
| 2026-04-30 19:51 | 33.37101 | -113.62684 | 24744 ft | 413 kts | 107° |
| 2026-04-30 19:51 | 33.36434 | -113.59383 | 24269 ft | 407 kts | 107° |
| 2026-04-30 19:51 | 33.35771 | -113.56126 | 23585 ft | 405 kts | 106° |
| 2026-04-30 19:51 | 33.35109 | -113.52876 | 23232 ft | 394 kts | 106° |
| 2026-04-30 19:52 | 33.34466 | -113.49729 | 22419 ft | 396 kts | 106° |
| 2026-04-30 19:52 | 33.33820 | -113.46572 | 22110 ft | 384 kts | 106° |
| 2026-04-30 19:52 | 33.33219 | -113.43489 | 21785 ft | 383 kts | 104° |
| 2026-04-30 19:52 | 33.32657 | -113.40341 | 21620 ft | 399 kts | 104° |
| 2026-04-30 19:53 | 33.32102 | -113.37096 | 21369 ft | 393 kts | 103° |
| 2026-04-30 19:53 | 33.31649 | -113.34398 | 20809 ft | 391 kts | 104° |
| 2026-04-30 19:53 | 33.31156 | -113.31468 | 20162 ft | 389 kts | 104° |
| 2026-04-30 19:53 | 33.30625 | -113.28326 | 19484 ft | 386 kts | 103° |
| 2026-04-30 19:54 | 33.30097 | -113.25222 | 19048 ft | 376 kts | 103° |
| 2026-04-30 19:54 | 33.29588 | -113.22224 | 18461 ft | 372 kts | 102° |
| 2026-04-30 19:54 | 33.29116 | -113.19175 | 17871 ft | 367 kts | 101° |
| 2026-04-30 19:54 | 33.28702 | -113.16229 | 17521 ft | 357 kts | 100° |
| 2026-04-30 19:55 | 33.28298 | -113.13286 | 16687 ft | 361 kts | 100° |
| 2026-04-30 19:55 | 33.27902 | -113.10411 | 16423 ft | 347 kts | 100° |
| 2026-04-30 19:55 | 33.27570 | -113.07606 | 16281 ft | 331 kts | 96° |
| 2026-04-30 19:55 | 33.27441 | -113.04897 | 15666 ft | 333 kts | 91° |
| 2026-04-30 19:56 | 33.27466 | -113.02169 | 15254 ft | 327 kts | 89° |
| 2026-04-30 19:56 | 33.27555 | -112.99506 | 15072 ft | 316 kts | 88° |
| 2026-04-30 19:56 | 33.27654 | -112.96883 | 14483 ft | 319 kts | 88° |
| 2026-04-30 19:56 | 33.27741 | -112.94270 | 14064 ft | 315 kts | 89° |
| 2026-04-30 19:57 | 33.27819 | -112.91587 | 13890 ft | 328 kts | 89° |
| 2026-04-30 19:57 | 33.27882 | -112.89181 | 13654 ft | 324 kts | 89° |
| 2026-04-30 19:57 | 33.27938 | -112.86980 | 13072 ft | 327 kts | 89° |
| 2026-04-30 19:57 | 33.27996 | -112.84539 | 12541 ft | 327 kts | 88° |
| 2026-04-30 19:58 | 33.28220 | -112.81912 | 12306 ft | 314 kts | 79° |
| 2026-04-30 19:58 | 33.28842 | -112.79462 | 12107 ft | 302 kts | 68° |
| 2026-04-30 19:58 | 33.29703 | -112.77181 | 11546 ft | 305 kts | 64° |
| 2026-04-30 19:58 | 33.30640 | -112.74933 | 11251 ft | 298 kts | 63° |
| 2026-04-30 19:59 | 33.31542 | -112.72735 | 10888 ft | 294 kts | 64° |
| 2026-04-30 19:59 | 33.32402 | -112.70544 | 10513 ft | 290 kts | 65° |
| 2026-04-30 19:59 | 33.33993 | -112.66359 | 10272 ft | 267 kts | 65° |
| 2026-04-30 20:00 | 33.34760 | -112.64350 | 9836 ft | 270 kts | 64° |
| 2026-04-30 20:00 | 33.35537 | -112.62318 | 9546 ft | 266 kts | 64° |
| 2026-04-30 20:00 | 33.36298 | -112.60327 | 9351 ft | 258 kts | 64° |
| 2026-04-30 20:00 | 33.37041 | -112.58379 | 8862 ft | 264 kts | 65° |
| 2026-04-30 20:01 | 33.38533 | -112.54463 | 8426 ft | 252 kts | 64° |
| 2026-04-30 20:01 | 33.39265 | -112.52542 | 8012 ft | 255 kts | 65° |
| 2026-04-30 20:01 | 33.39925 | -112.50805 | 7966 ft | 243 kts | 65° |
| 2026-04-30 20:02 | 33.41162 | -112.47389 | 7772 ft | 227 kts | 67° |
| 2026-04-30 20:02 | 33.41749 | -112.45696 | 7439 ft | 232 kts | 67° |
| 2026-04-30 20:03 | 33.42831 | -112.42316 | 7054 ft | 221 kts | 78° |
| 2026-04-30 20:03 | 33.42958 | -112.40574 | 6921 ft | 211 kts | 91° |
| 2026-04-30 20:03 | 33.42915 | -112.38892 | 6749 ft | 205 kts | 92° |
| 2026-04-30 20:03 | 33.42877 | -112.37186 | 6501 ft | 204 kts | 92° |
| 2026-04-30 20:04 | 33.42869 | -112.35558 | 6271 ft | 202 kts | 89° |
| 2026-04-30 20:04 | 33.43179 | -112.33971 | 5873 ft | 212 kts | 67° |
| 2026-04-30 20:04 | 33.43713 | -112.32497 | 5786 ft | 203 kts | 73° |
| 2026-04-30 20:05 | 33.44031 | -112.29429 | 5366 ft | 208 kts | 90° |
| 2026-04-30 20:05 | 33.44033 | -112.27852 | 5107 ft | 212 kts | 91° |
| 2026-04-30 20:05 | 33.44035 | -112.24482 | 4575 ft | 221 kts | 91° |
| 2026-04-30 20:06 | 33.44043 | -112.22797 | 4304 ft | 220 kts | 91° |
| 2026-04-30 20:06 | 33.44047 | -112.21127 | 4036 ft | 220 kts | 91° |
| 2026-04-30 20:06 | 33.44051 | -112.19466 | 3770 ft | 220 kts | 91° |
| 2026-04-30 20:06 | 33.44054 | -112.17786 | 3507 ft | 219 kts | 91° |
| 2026-04-30 20:07 | 33.44058 | -112.16128 | 3244 ft | 218 kts | 91° |
| 2026-04-30 20:07 | 33.44062 | -112.14507 | 2988 ft | 218 kts | 91° |
| 2026-04-30 20:07 | 33.44069 | -112.11401 | 2542 ft | 186 kts | 91° |
| 2026-04-30 20:08 | 33.44070 | -112.10055 | 2274 ft | 168 kts | 91° |
| 2026-04-30 20:08 | 33.44072 | -112.08836 | 2104 ft | 161 kts | 91° |
| 2026-04-30 20:08 | 33.44074 | -112.07626 | 1923 ft | 159 kts | 90° |
| 2026-04-30 20:08 | 33.44075 | -112.06417 | 1735 ft | 160 kts | 90° |
| 2026-04-30 20:09 | 33.44077 | -112.05214 | 1552 ft | 159 kts | 90° |
| 2026-04-30 20:09 | 33.44076 | -112.04027 | 1368 ft | 158 kts | 90° |